Time;durP1;ratioP1;P1;durP2;ratioP2;P2;SDS_P1;SDS_P2;PMS_P1;PMS_P2;Temp;Humidity;BMP_temperature;BMP_pressure;BME280_temperature;BME280_humidity;BME280_pressure;Samples;Min_cycle;Max_cycle;Signal;HPM_P1;HPM_P2
2022/12/23 00:01:15;;;;;;;44.10;25.55;;;26.20;99.90;;;;;;5035776;28;20100;-72
2022/12/23 00:03:42;;;;;;;45.13;27.27;;;26.30;99.90;;;;;;5035845;28;20041;-71
2022/12/23 00:06:11;;;;;;;41.78;27.90;;;26.20;99.90;;;;;;5035608;28;20048;-71
2022/12/23 00:08:38;;;;;;;45.47;28.35;;;26.20;99.90;;;;;;5035556;28;20025;-71
2022/12/23 00:11:09;;;;;;;37.10;25.83;;;26.30;99.90;;;;;;5035452;28;20025;-72
2022/12/23 00:16:21;;;;;;;40.17;26.55;;;26.20;99.90;;;;;;5035453;28;20328;-72
2022/12/23 00:18:47;;;;;;;121.95;87.35;;;26.20;99.90;;;;;;5035375;28;20049;-71
2022/12/23 00:21:16;;;;;;;79.13;53.58;;;26.30;99.90;;;;;;5035313;28;20013;-71
2022/12/23 00:23:45;;;;;;;69.30;44.60;;;26.30;99.90;;;;;;5035166;28;20025;-71
2022/12/23 00:26:23;;;;;;;78.95;49.65;;;26.30;99.90;;;;;;5035098;28;20029;-71
2022/12/23 00:28:50;;;;;;;74.97;47.15;;;26.20;99.90;;;;;;5035058;28;20032;-72
2022/12/23 00:31:18;;;;;;;50.72;30.92;;;26.30;99.90;;;;;;5035472;28;20049;-70
2022/12/23 00:33:47;;;;;;;42.17;23.92;;;26.20;99.90;;;;;;5034865;28;20025;-70
2022/12/23 00:36:26;;;;;;;55.83;34.70;;;26.30;99.90;;;;;;5035004;28;20029;-70
2022/12/23 00:44:23;;;;;;;47.20;28.65;;;26.30;99.90;;;;;;5035020;28;20033;-71
2022/12/23 00:46:50;;;;;;;33.65;20.60;;;26.30;99.90;;;;;;5034878;28;20052;-70
2022/12/23 00:52:04;;;;;;;45.88;24.48;;;26.30;99.90;;;;;;5034875;28;20068;-72
2022/12/23 00:54:31;;;;;;;62.28;40.08;;;26.30;99.90;;;;;;5034678;28;20025;-72
2022/12/23 00:56:58;;;;;;;36.70;23.58;;;26.30;99.90;;;;;;5034711;28;20586;-72
2022/12/23 00:59:24;;;;;;;89.63;43.47;;;26.30;99.90;;;;;;5034738;28;20049;-72
2022/12/23 01:07:21;;;;;;;182.80;105.32;;;26.30;99.90;;;;;;5034725;28;20551;-73
2022/12/23 01:09:47;;;;;;;63.45;31.17;;;26.30;99.90;;;;;;5034217;28;20022;-74
2022/12/23 01:12:14;;;;;;;127.32;60.20;;;26.40;99.90;;;;;;5034611;28;20023;-75
2022/12/23 01:14:40;;;;;;;72.43;37.10;;;26.50;99.90;;;;;;5034544;28;20029;-72
2022/12/23 01:17:08;;;;;;;70.68;33.22;;;26.50;99.90;;;;;;5034199;28;20391;-74
2022/12/23 01:19:35;;;;;;;44.85;23.13;;;26.50;99.90;;;;;;5034301;28;20052;-74
2022/12/23 01:22:01;;;;;;;44.33;26.08;;;26.50;99.90;;;;;;5034461;28;20079;-73
2022/12/23 01:24:29;;;;;;;45.10;26.17;;;26.50;99.90;;;;;;5034519;28;20433;-75
2022/12/23 01:26:57;;;;;;;192.18;98.15;;;26.50;99.90;;;;;;5034503;28;20029;-77
2022/12/23 01:29:23;;;;;;;412.90;218.70;;;26.60;99.90;;;;;;5034252;28;20482;-75
2022/12/23 01:31:50;;;;;;;207.68;106.68;;;26.60;99.90;;;;;;5033968;28;20398;-77
2022/12/23 01:34:17;;;;;;;147.38;81.82;;;26.60;99.90;;;;;;5034044;28;20560;-78
2022/12/23 01:36:43;;;;;;;126.32;72.13;;;26.70;99.90;;;;;;5034023;28;20477;-79
2022/12/23 01:39:10;;;;;;;77.65;47.67;;;26.70;99.90;;;;;;5034010;28;20026;-73
2022/12/23 01:44:49;;;;;;;182.43;100.55;;;26.70;99.90;;;;;;5034156;28;20390;-74
2022/12/23 01:47:41;;;;;;;736.83;459.23;;;26.70;99.90;;;;;;5034113;28;20064;-73
2022/12/23 01:50:16;;;;;;;174.70;92.38;;;26.70;99.90;;;;;;5033365;28;20060;-73
2022/12/23 01:53:07;;;;;;;238.00;115.03;;;26.80;99.90;;;;;;5033739;28;20030;-74
2022/12/23 01:55:51;;;;;;;63.17;34.63;;;26.80;99.90;;;;;;5033491;28;20038;-73
2022/12/23 01:58:41;;;;;;;161.38;66.78;;;26.80;99.90;;;;;;5033453;28;20041;-74
2022/12/23 02:03:56;;;;;;;427.60;189.48;;;26.90;99.90;;;;;;5033983;28;20036;-69
2022/12/23 02:09:20;;;;;;;388.17;195.38;;;27.00;99.90;;;;;;5033575;28;20573;-69
2022/12/23 02:12:12;;;;;;;143.32;78.95;;;27.00;99.90;;;;;;5032650;28;20463;-68
2022/12/23 02:18:35;;;;;;;53.08;30.73;;;27.10;99.90;;;;;;4972548;28;20031;-70
2022/12/23 02:21:10;;;;;;;90.97;50.33;;;27.20;99.90;;;;;;5033352;28;20071;-71
2022/12/23 02:24:01;;;;;;;106.07;62.30;;;27.20;99.90;;;;;;5033115;28;20021;-71
2022/12/23 02:26:30;;;;;;;103.13;59.13;;;27.30;99.90;;;;;;5033247;28;20074;-67
2022/12/23 02:29:12;;;;;;;96.32;59.53;;;27.30;99.90;;;;;;5033201;28;20045;-70
2022/12/23 02:31:56;;;;;;;87.13;49.80;;;27.30;99.90;;;;;;5033566;28;20034;-72
2022/12/23 02:34:29;;;;;;;96.15;56.55;;;27.40;99.90;;;;;;5033219;28;20108;-71
2022/12/23 02:36:58;;;;;;;136.93;99.63;;;27.50;99.90;;;;;;5033129;28;20040;-71
2022/12/23 02:39:47;;;;;;;89.13;55.05;;;27.60;99.90;;;;;;5033010;28;20021;-72
2022/12/23 02:42:23;;;;;;;202.05;140.75;;;27.60;99.90;;;;;;5033027;28;20026;-70
2022/12/23 02:45:01;;;;;;;119.82;88.20;;;27.70;99.90;;;;;;5033245;28;20029;-70
2022/12/23 02:47:47;;;;;;;298.30;220.70;;;27.70;99.90;;;;;;5033218;28;20029;-71
2022/12/23 02:50:36;;;;;;;89.55;57.70;;;27.70;99.90;;;;;;5033105;28;20100;-71
2022/12/23 02:53:09;;;;;;;122.03;77.70;;;27.70;99.90;;;;;;5032747;28;20446;-71
2022/12/23 02:55:39;;;;;;;85.82;51.75;;;27.70;99.90;;;;;;5033007;28;20017;-72
2022/12/23 02:58:10;;;;;;;91.35;56.53;;;27.80;99.90;;;;;;5032795;28;20033;-72
2022/12/23 03:00:39;;;;;;;66.70;41.75;;;27.90;99.90;;;;;;5033249;28;20026;-72
2022/12/23 03:03:05;;;;;;;29.27;18.38;;;27.90;99.90;;;;;;5032908;28;20097;-71
2022/12/23 03:05:42;;;;;;;54.63;31.17;;;27.90;99.90;;;;;;5032795;28;20041;-72
2022/12/23 03:08:19;;;;;;;376.55;254.82;;;27.90;99.90;;;;;;5033158;28;20495;-72
2022/12/23 03:11:03;;;;;;;42.00;27.40;;;27.90;99.90;;;;;;5033002;28;20017;-72
2022/12/23 03:13:58;;;;;;;44.97;30.33;;;28.00;99.90;;;;;;5032684;28;20548;-73
2022/12/23 03:16:46;;;;;;;58.78;30.10;;;28.00;99.90;;;;;;5032805;28;20017;-72
2022/12/23 03:19:50;;;;;;;155.95;91.10;;;28.00;99.90;;;;;;5032618;28;20017;-70
2022/12/23 03:22:43;;;;;;;77.90;41.10;;;28.00;99.90;;;;;;5030486;28;20080;-71
2022/12/23 03:25:25;;;;;;;44.10;26.83;;;28.00;99.90;;;;;;5036269;28;20226;-70
2022/12/23 03:28:15;;;;;;;45.22;24.35;;;28.10;99.90;;;;;;5036373;28;20022;-71
2022/12/23 03:30:46;;;;;;;38.85;20.33;;;28.10;99.90;;;;;;5013505;28;20445;-72
2022/12/23 03:33:21;;;;;;;27.80;13.23;;;28.10;99.90;;;;;;5036182;28;20029;-72
2022/12/23 03:36:06;;;;;;;52.45;34.10;;;28.10;99.90;;;;;;5036129;28;20091;-67
2022/12/23 03:38:37;;;;;;;27.38;14.00;;;28.10;99.90;;;;;;5036432;28;20124;-68
2022/12/23 03:41:08;;;;;;;53.15;42.00;;;28.10;99.90;;;;;;5036346;28;20415;-70
2022/12/23 03:43:46;;;;;;;31.52;19.83;;;28.10;99.90;;;;;;5036032;28;20025;-70
2022/12/23 03:46:19;;;;;;;55.10;33.17;;;28.10;99.90;;;;;;5036149;28;20026;-69
2022/12/23 03:48:50;;;;;;;;;;;28.20;99.90;;;;;;5036427;28;20359;-69
2022/12/23 03:51:23;;;;;;;54.70;27.02;;;28.20;99.90;;;;;;5035954;28;19912;-70
2022/12/23 03:53:58;;;;;;;69.57;41.33;;;28.20;99.90;;;;;;5035959;28;20021;-68
2022/12/23 03:56:34;;;;;;;38.05;21.20;;;28.20;99.90;;;;;;5036108;28;20479;-69
2022/12/23 03:59:23;;;;;;;41.33;23.80;;;28.20;99.90;;;;;;5035672;28;20042;-69
2022/12/23 04:02:07;;;;;;;44.25;25.17;;;28.30;99.90;;;;;;5036076;28;20017;-68
2022/12/23 04:05:02;;;;;;;36.90;19.73;;;28.30;99.90;;;;;;5035581;28;20034;-69
2022/12/23 04:07:48;;;;;;;62.15;31.85;;;28.30;99.90;;;;;;5046910;28;20182;-68
2022/12/23 04:10:15;;;;;;;60.50;38.53;;;28.30;99.90;;;;;;5052483;28;20509;-73
2022/12/23 04:12:43;;;;;;;23.58;13.80;;;28.40;99.90;;;;;;5055683;28;20576;-73
2022/12/23 04:15:09;;;;;;;127.65;78.93;;;28.40;99.90;;;;;;5055441;28;20031;-73
2022/12/23 04:17:36;;;;;;;80.20;47.03;;;28.40;99.90;;;;;;5075612;28;20047;-70
2022/12/23 04:20:03;;;;;;;353.55;180.00;;;28.50;99.90;;;;;;5075248;28;20021;-68
2022/12/23 04:22:30;;;;;;;140.40;60.50;;;28.50;99.90;;;;;;5075387;28;20030;-70
2022/12/23 04:24:56;;;;;;;118.82;54.67;;;28.50;99.90;;;;;;5075566;28;20377;-70
2022/12/23 04:27:23;;;;;;;92.10;43.92;;;28.50;99.90;;;;;;5075160;28;20028;-70
2022/12/23 04:29:49;;;;;;;303.48;131.32;;;28.60;99.90;;;;;;5074788;28;20025;-70
2022/12/23 04:32:15;;;;;;;52.00;26.23;;;28.60;99.90;;;;;;5075000;28;20056;-68
2022/12/23 04:34:42;;;;;;;161.75;86.65;;;28.70;99.90;;;;;;5074235;28;20103;-68
2022/12/23 04:37:10;;;;;;;209.95;119.90;;;28.70;99.90;;;;;;5074743;28;20020;-68
2022/12/23 04:39:36;;;;;;;24.73;15.57;;;28.70;99.90;;;;;;5075391;28;20389;-68
2022/12/23 04:42:03;;;;;;;220.23;113.13;;;28.70;99.90;;;;;;5075250;28;20103;-69
2022/12/23 04:44:29;;;;;;;301.08;134.38;;;28.70;99.90;;;;;;5075125;28;20389;-68
2022/12/23 04:46:56;;;;;;;145.27;73.70;;;28.70;99.90;;;;;;5074902;28;20054;-69
2022/12/23 04:49:22;;;;;;;518.38;311.00;;;28.70;99.90;;;;;;5074835;28;20040;-68
2022/12/23 04:51:49;;;;;;;349.85;200.82;;;28.70;99.90;;;;;;5074785;28;20043;-67
2022/12/23 04:54:15;;;;;;;149.00;75.78;;;28.70;99.90;;;;;;5074916;28;20504;-68
2022/12/23 04:56:42;;;;;;;194.05;96.88;;;28.70;99.90;;;;;;5074626;28;20020;-69
2022/12/23 04:59:10;;;;;;;76.82;43.88;;;28.80;99.90;;;;;;5074420;28;20041;-69
2022/12/23 05:01:36;;;;;;;172.35;80.05;;;28.80;99.90;;;;;;5074885;28;20035;-70
2022/12/23 05:04:03;;;;;;;45.83;23.73;;;28.90;99.90;;;;;;5052913;28;20387;-71
2022/12/23 05:06:29;;;;;;;77.30;34.28;;;28.90;99.90;;;;;;5054579;28;20100;-70
2022/12/23 05:08:56;;;;;;;215.60;104.55;;;28.90;99.90;;;;;;5054881;28;20078;-69
2022/12/23 05:11:22;;;;;;;385.45;148.27;;;29.00;99.90;;;;;;5049418;28;20025;-70
2022/12/23 05:13:49;;;;;;;188.15;80.97;;;29.00;99.90;;;;;;5034485;28;20548;-70
2022/12/23 05:16:15;;;;;;;203.77;85.63;;;29.00;99.90;;;;;;5043081;28;20033;-71
2022/12/23 05:18:42;;;;;;;88.70;35.58;;;29.00;99.90;;;;;;5040975;28;20553;-70
2022/12/23 05:21:08;;;;;;;116.22;52.50;;;29.00;99.90;;;;;;5052998;28;20029;-71
2022/12/23 05:23:35;;;;;;;83.18;32.70;;;29.00;99.90;;;;;;5052889;28;20025;-69
2022/12/23 05:26:02;;;;;;;26.90;13.77;;;29.00;99.90;;;;;;5050927;28;20067;-71
2022/12/23 05:28:29;;;;;;;179.93;57.97;;;29.10;99.90;;;;;;5043890;28;20079;-73
2022/12/23 05:31:04;;;;;;;174.40;66.53;;;29.00;99.90;;;;;;5049109;28;20032;-72
2022/12/23 05:33:32;;;;;;;83.60;32.60;;;29.00;99.90;;;;;;5054258;28;20028;-73
2022/12/23 05:35:59;;;;;;;114.40;42.67;;;29.10;99.90;;;;;;5048027;28;20021;-73
2022/12/23 05:38:26;;;;;;;27.20;14.80;;;29.10;99.90;;;;;;5033918;28;20076;-69
2022/12/23 05:40:52;;;;;;;109.82;33.55;;;29.10;99.90;;;;;;5033992;28;20018;-69
2022/12/23 05:43:19;;;;;;;44.08;18.15;;;29.20;99.90;;;;;;5034020;28;20490;-70
2022/12/23 05:45:46;;;;;;;85.20;26.73;;;29.20;99.90;;;;;;5047733;28;20277;-69
2022/12/23 05:48:13;;;;;;;133.85;39.65;;;29.20;99.90;;;;;;5052793;28;20048;-69
2022/12/23 05:50:40;;;;;;;229.68;64.10;;;29.20;99.90;;;;;;5053716;28;20025;-69
2022/12/23 05:53:07;;;;;;;227.82;109.45;;;29.30;99.90;;;;;;5053595;28;20409;-70
2022/12/23 05:55:35;;;;;;;395.58;225.80;;;29.30;99.90;;;;;;5053589;28;20013;-70
2022/12/23 05:58:01;;;;;;;48.70;26.52;;;29.30;99.90;;;;;;5053474;28;20485;-70
2022/12/23 06:00:28;;;;;;;18.63;11.18;;;29.30;99.90;;;;;;5053794;28;20036;-70
2022/12/23 06:02:55;;;;;;;142.55;62.08;;;29.40;99.90;;;;;;5053635;28;20100;-70
2022/12/23 06:05:22;;;;;;;96.40;49.63;;;29.30;99.90;;;;;;5053733;28;20431;-71
2022/12/23 06:07:48;;;;;;;103.43;49.90;;;29.30;99.90;;;;;;5053486;28;20025;-69
2022/12/23 06:10:14;;;;;;;27.63;15.82;;;29.40;99.90;;;;;;5048110;28;20567;-70
2022/12/23 06:12:41;;;;;;;54.17;26.67;;;29.40;99.90;;;;;;5040311;28;20116;-76
2022/12/23 06:15:09;;;;;;;20.60;10.90;;;29.40;99.90;;;;;;5037150;28;20030;-73
2022/12/23 06:17:35;;;;;;;22.77;13.70;;;29.30;99.90;;;;;;5051699;28;20477;-72
2022/12/23 06:20:02;;;;;;;24.20;12.40;;;29.40;99.90;;;;;;5052115;28;20100;-71
2022/12/23 06:22:30;;;;;;;35.60;19.25;;;29.40;99.90;;;;;;5053360;28;20017;-70
2022/12/23 06:24:56;;;;;;;21.45;12.95;;;29.30;99.90;;;;;;5057595;28;20070;-67
2022/12/23 06:27:23;;;;;;;30.58;16.52;;;29.30;99.90;;;;;;5073151;28;20493;-70
2022/12/23 06:29:49;;;;;;;22.08;11.30;;;29.40;99.90;;;;;;5073069;28;20036;-70
2022/12/23 06:32:16;;;;;;;26.95;18.50;;;29.40;99.90;;;;;;5073560;28;20077;-70
2022/12/23 06:34:42;;;;;;;21.88;12.05;;;29.40;99.90;;;;;;5073365;28;20017;-69
2022/12/23 06:37:09;;;;;;;25.20;14.52;;;29.40;99.90;;;;;;5073074;28;20027;-69
2022/12/23 06:39:35;;;;;;;19.38;12.10;;;29.50;99.90;;;;;;5058362;28;20024;-70
2022/12/23 06:42:02;;;;;;;57.67;36.42;;;29.50;99.90;;;;;;5043182;28;20021;-70
2022/12/23 06:44:28;;;;;;;138.00;91.60;;;29.50;99.90;;;;;;5033168;28;20113;-70
2022/12/23 06:46:55;;;;;;;60.97;45.75;;;29.60;99.90;;;;;;5052652;28;20029;-71
2022/12/23 06:49:21;;;;;;;25.27;16.23;;;29.60;99.90;;;;;;5053342;28;20069;-71
2022/12/23 06:51:48;;;;;;;39.78;26.65;;;29.50;99.90;;;;;;5042509;28;20040;-70
2022/12/23 06:54:14;;;;;;;27.13;17.65;;;29.50;99.90;;;;;;5032903;28;20036;-71
2022/12/23 06:56:41;;;;;;;33.65;23.80;;;29.50;99.90;;;;;;5037626;28;20286;-72
2022/12/23 06:59:07;;;;;;;30.63;21.73;;;29.50;99.90;;;;;;5046347;28;20041;-70
2022/12/23 07:01:34;;;;;;;19.10;13.35;;;29.50;99.90;;;;;;5060240;28;20384;-70
2022/12/23 07:04:01;;;;;;;17.55;11.15;;;29.50;99.90;;;;;;5076557;28;20024;-70
2022/12/23 07:06:28;;;;;;;105.60;81.13;;;29.50;99.90;;;;;;5076561;28;20020;-71
2022/12/23 07:08:55;;;;;;;85.82;66.68;;;29.60;99.90;;;;;;5058110;28;20090;-68
2022/12/23 07:11:24;;;;;;;38.17;24.95;;;29.60;99.90;;;;;;5047952;28;20025;-70
2022/12/23 07:13:51;;;;;;;50.03;36.17;;;29.70;99.90;;;;;;5056195;28;20040;-70
2022/12/23 07:16:17;;;;;;;58.60;41.53;;;29.70;99.90;;;;;;5056277;28;20028;-68
2022/12/23 07:18:44;;;;;;;81.45;62.22;;;29.60;99.90;;;;;;5056709;28;20501;-68
2022/12/23 07:21:10;;;;;;;45.55;28.15;;;29.60;99.90;;;;;;5054797;28;20114;-69
2022/12/23 07:23:37;;;;;;;20.58;12.00;;;29.60;99.90;;;;;;5036893;28;20017;-70
2022/12/23 07:26:03;;;;;;;27.00;17.38;;;29.60;99.90;;;;;;5036722;28;20044;-70
2022/12/23 07:28:30;;;;;;;107.47;73.18;;;29.60;99.90;;;;;;5036768;28;20091;-70
2022/12/23 07:30:56;;;;;;;80.63;55.63;;;29.60;99.90;;;;;;5039697;28;20097;-70
2022/12/23 07:33:23;;;;;;;34.38;21.67;;;29.60;99.90;;;;;;5054495;28;20103;-69
2022/12/23 07:35:49;;;;;;;74.78;54.75;;;29.60;99.90;;;;;;5047305;28;20023;-69
2022/12/23 07:38:16;;;;;;;89.57;60.67;;;29.50;99.90;;;;;;5060156;28;20051;-69
2022/12/23 07:40:42;;;;;;;26.02;15.88;;;29.50;99.90;;;;;;5056383;28;20017;-67
2022/12/23 07:43:09;;;;;;;24.23;16.67;;;29.50;99.90;;;;;;5056144;28;20032;-71
2022/12/23 07:45:36;;;;;;;19.17;11.55;;;29.50;99.90;;;;;;5053076;28;20032;-71
2022/12/23 07:48:02;;;;;;;21.02;10.82;;;29.50;99.90;;;;;;5053524;28;20074;-71
2022/12/23 07:50:29;;;;;;;20.05;10.20;;;29.50;99.90;;;;;;5054073;28;20396;-71
2022/12/23 07:52:55;;;;;;;18.10;10.77;;;29.50;99.90;;;;;;5053769;28;20041;-71
2022/12/23 07:55:22;;;;;;;20.17;9.75;;;29.50;99.90;;;;;;5053949;28;20060;-71
2022/12/23 07:57:50;;;;;;;19.80;10.02;;;29.50;99.90;;;;;;5054099;28;20021;-68
2022/12/23 08:00:18;;;;;;;23.85;10.68;;;29.50;99.90;;;;;;5055156;28;20036;-71
2022/12/23 08:02:45;;;;;;;19.35;11.57;;;29.50;99.90;;;;;;5049229;28;20032;-70
2022/12/23 08:05:13;;;;;;;18.95;11.60;;;29.50;99.90;;;;;;5036942;28;20036;-71
2022/12/23 08:07:39;;;;;;;27.75;14.05;;;29.40;99.90;;;;;;5035581;28;20037;-72
2022/12/23 08:10:07;;;;;;;38.28;21.40;;;29.40;99.90;;;;;;5016436;28;20025;-67
2022/12/23 08:12:33;;;;;;;59.67;29.70;;;29.00;99.90;;;;;;5035522;28;20480;-67
2022/12/23 08:15:00;;;;;;;42.97;16.00;;;28.50;99.90;;;;;;5035311;28;20045;-69
2022/12/23 08:17:28;;;;;;;122.50;90.32;;;28.30;99.90;;;;;;5035657;28;20067;-68
2022/12/23 08:19:54;;;;;;;161.90;98.57;;;28.20;99.90;;;;;;5035474;28;20382;-69
2022/12/23 08:22:21;;;;;;;28.70;15.20;;;28.10;99.90;;;;;;5035248;28;20017;-70
2022/12/23 08:24:47;;;;;;;26.23;11.73;;;28.00;99.90;;;;;;5035545;28;20032;-71
2022/12/23 08:27:15;;;;;;;26.50;17.17;;;28.10;99.90;;;;;;5035455;28;20029;-71
2022/12/23 08:29:41;;;;;;;33.85;20.52;;;28.00;99.90;;;;;;5034794;28;20033;-67
2022/12/23 08:32:08;;;;;;;27.85;18.48;;;27.90;99.90;;;;;;5035424;28;20029;-69
2022/12/23 08:34:35;;;;;;;42.83;27.08;;;27.70;99.90;;;;;;5035263;28;20025;-69
2022/12/23 08:37:02;;;;;;;99.72;69.07;;;27.60;99.90;;;;;;5034879;28;20017;-68
2022/12/23 08:39:28;;;;;;;55.90;34.10;;;27.60;99.90;;;;;;5034873;28;20029;-68
2022/12/23 08:41:55;;;;;;;48.92;29.65;;;27.60;99.90;;;;;;5034982;28;20017;-68
2022/12/23 08:44:22;;;;;;;35.50;19.38;;;27.70;99.90;;;;;;5035186;28;20030;-68
2022/12/23 08:46:48;;;;;;;36.55;12.90;;;27.70;99.90;;;;;;5042028;28;20045;-68
2022/12/23 08:49:15;;;;;;;23.95;12.70;;;27.70;99.90;;;;;;5039104;28;20052;-69
2022/12/23 08:51:41;;;;;;;22.08;11.70;;;27.70;99.90;;;;;;5034941;28;20053;-69
2022/12/23 08:54:09;;;;;;;27.88;13.60;;;27.70;99.90;;;;;;5034524;28;20249;-66
2022/12/23 08:56:39;;;;;;;103.35;88.70;;;27.60;99.90;;;;;;5034868;28;20450;-67
2022/12/23 08:59:05;;;;;;;125.22;112.57;;;27.70;99.90;;;;;;5034418;28;20065;-67
2022/12/23 09:01:33;;;;;;;41.78;30.77;;;27.70;99.90;;;;;;5034485;28;20029;-64
2022/12/23 09:04:06;;;;;;;27.48;16.30;;;27.70;99.90;;;;;;5034486;28;20478;-64
2022/12/23 09:06:41;;;;;;;36.20;19.92;;;27.80;99.90;;;;;;5033761;28;20034;-65
2022/12/23 09:09:10;;;;;;;27.73;16.63;;;27.70;99.90;;;;;;5034717;28;20112;-65
2022/12/23 09:11:37;;;;;;;24.20;14.93;;;27.60;99.90;;;;;;5034888;28;20026;-65
2022/12/23 09:14:04;;;;;;;29.00;15.07;;;27.70;99.90;;;;;;5034368;28;20036;-65
2022/12/23 09:16:31;;;;;;;31.88;17.13;;;27.60;99.90;;;;;;5034399;28;20104;-66
2022/12/23 09:18:58;;;;;;;30.85;18.92;;;27.70;99.90;;;;;;5033842;28;20018;-66
2022/12/23 09:21:24;;;;;;;34.50;20.40;;;27.70;99.90;;;;;;5034354;28;20037;-66
2022/12/23 09:23:51;;;;;;;27.75;16.63;;;27.60;99.90;;;;;;5045033;28;20025;-67
2022/12/23 09:26:24;;;;;;;30.83;15.70;;;27.50;99.90;;;;;;5034275;28;20036;-68
2022/12/23 09:28:51;;;;;;;100.35;67.38;;;27.60;99.90;;;;;;5034332;28;20057;-67
2022/12/23 09:31:18;;;;;;;31.08;21.10;;;27.70;99.90;;;;;;5034308;28;20033;-67
2022/12/23 09:33:49;;;;;;;33.72;18.55;;;27.70;99.90;;;;;;5034132;28;20493;-66
2022/12/23 09:36:16;;;;;;;29.17;19.95;;;27.70;99.90;;;;;;5034054;28;20034;-67
2022/12/23 09:38:43;;;;;;;38.85;24.90;;;27.70;99.90;;;;;;5033612;28;20139;-66
2022/12/23 09:41:42;;;;;;;47.03;29.65;;;27.80;99.90;;;;;;5034033;28;20088;-67
2022/12/23 09:44:15;;;;;;;31.15;18.90;;;27.90;99.90;;;;;;5000907;28;20394;-67
2022/12/23 09:46:53;;;;;;;107.90;88.65;;;27.80;99.90;;;;;;5034125;28;20026;-66
2022/12/23 09:49:21;;;;;;;41.35;31.35;;;27.90;99.90;;;;;;5033954;28;20355;-66
2022/12/23 09:51:52;;;;;;;32.42;20.92;;;27.90;99.90;;;;;;5033571;28;20385;-65
2022/12/23 09:54:25;;;;;;;288.55;215.13;;;27.80;99.90;;;;;;5033423;28;20478;-67
2022/12/23 09:56:54;;;;;;;48.63;37.03;;;27.90;99.90;;;;;;5033116;28;20026;-67
2022/12/23 09:59:39;;;;;;;36.45;24.27;;;27.80;99.90;;;;;;5033203;28;20493;-67
2022/12/23 10:02:26;;;;;;;54.30;33.28;;;27.80;99.90;;;;;;5034341;28;20021;-67
2022/12/23 10:05:17;;;;;;;42.88;31.15;;;27.80;99.90;;;;;;5044217;28;20037;-67
2022/12/23 10:08:14;;;;;;;38.63;21.02;;;27.90;99.90;;;;;;5053218;28;20021;-66
2022/12/23 10:10:46;;;;;;;28.40;18.67;;;27.90;99.90;;;;;;5045126;28;20116;-67
2022/12/23 10:13:41;;;;;;;29.15;17.13;;;27.90;99.90;;;;;;5053186;28;20060;-66
2022/12/23 10:16:13;;;;;;;23.20;16.55;;;27.90;99.90;;;;;;5038905;28;20026;-69
2022/12/23 10:18:46;;;;;;;27.33;16.48;;;27.90;99.90;;;;;;5041819;28;20100;-67
2022/12/23 10:21:18;;;;;;;25.40;15.18;;;27.90;99.90;;;;;;5052938;28;20424;-67
2022/12/23 10:23:50;;;;;;;28.05;15.40;;;28.00;99.90;;;;;;5052460;28;20697;-66
2022/12/23 10:26:28;;;;;;;31.42;15.82;;;27.90;99.90;;;;;;5051829;28;20029;-67
2022/12/23 10:29:04;;;;;;;31.13;16.38;;;27.90;99.90;;;;;;5049988;28;20068;-67
2022/12/23 10:31:47;;;;;;;39.75;15.95;;;28.00;99.90;;;;;;5047189;28;20423;-69
2022/12/23 10:34:18;;;;;;;;;;;27.90;99.90;;;;;;5052556;28;20036;-70
2022/12/23 10:37:29;;;;;;;37.07;19.47;;;27.90;99.90;;;;;;5040929;28;19984;-67
2022/12/23 10:40:10;;;;;;;30.20;19.95;;;27.90;99.90;;;;;;4983699;28;20031;-64
2022/12/23 10:42:51;;;;;;;39.33;22.65;;;27.90;99.90;;;;;;5048645;28;20021;-65
2022/12/23 10:45:28;;;;;;;30.30;19.50;;;27.90;99.90;;;;;;5053591;28;20539;-67
2022/12/23 10:48:22;;;;;;;34.35;18.85;;;27.90;99.90;;;;;;5053324;28;20035;-67
2022/12/23 10:50:57;;;;;;;36.95;24.45;;;27.70;99.90;;;;;;5054950;28;20112;-67
2022/12/23 10:53:59;;;;;;;43.15;29.48;;;27.90;99.90;;;;;;5056558;28;20509;-69
2022/12/23 10:56:27;;;;;;;38.30;25.15;;;27.70;99.90;;;;;;5023096;28;20044;-69
2022/12/23 10:58:56;;;;;;;31.00;21.10;;;27.70;99.90;;;;;;5055228;28;20382;-68
2022/12/23 11:01:24;;;;;;;40.85;21.55;;;27.80;99.90;;;;;;5055243;28;20024;-71
2022/12/23 11:04:12;;;;;;;32.55;20.38;;;27.70;99.90;;;;;;5055327;28;20033;-71
2022/12/23 11:06:42;;;;;;;30.85;18.73;;;27.70;99.90;;;;;;5052228;28;20037;-72
2022/12/23 11:09:24;;;;;;;26.17;14.60;;;27.60;99.90;;;;;;5054517;28;20024;-72
2022/12/23 11:12:03;;;;;;;26.50;13.57;;;27.60;99.90;;;;;;5049444;28;20037;-71
2022/12/23 11:14:42;;;;;;;21.85;14.27;;;27.80;99.90;;;;;;5053500;28;20044;-71
2022/12/23 11:17:29;;;;;;;22.08;12.25;;;27.80;99.90;;;;;;5053462;28;20424;-70
2022/12/23 11:20:15;;;;;;;20.70;11.52;;;27.70;99.90;;;;;;5054647;28;20377;-71
2022/12/23 11:22:57;;;;;;;21.15;11.90;;;27.50;99.90;;;;;;5052813;28;20060;-71
2022/12/23 11:25:41;;;;;;;24.52;11.00;;;27.60;99.90;;;;;;5053187;28;20017;-70
2022/12/23 11:28:13;;;;;;;20.48;11.20;;;27.50;99.90;;;;;;5054200;28;20087;-69
2022/12/23 11:30:54;;;;;;;;;;;27.70;99.90;;;;;;5052877;28;20074;-69
2022/12/23 11:33:33;;;;;;;22.17;11.38;;;27.40;99.90;;;;;;5052584;28;19912;-69
2022/12/23 11:36:12;;;;;;;21.77;11.88;;;27.70;99.90;;;;;;5052142;28;20092;-69
2022/12/23 11:38:50;;;;;;;19.38;11.20;;;27.50;99.90;;;;;;5052075;28;20017;-69
2022/12/23 11:41:28;;;;;;;21.02;12.18;;;27.80;99.90;;;;;;5050791;28;21041;-72
2022/12/23 11:44:02;;;;;;;24.60;11.75;;;27.60;99.90;;;;;;5053658;28;20605;-73
2022/12/23 11:46:32;;;;;;;23.75;12.32;;;27.60;99.90;;;;;;5054980;28;20033;-71
2022/12/23 11:49:17;;;;;;;32.42;13.90;;;27.60;99.90;;;;;;5055383;28;20031;-74
2022/12/23 11:52:20;;;;;;;30.70;15.65;;;27.70;99.90;;;;;;5055620;28;20473;-72
2022/12/23 11:54:53;;;;;;;31.33;16.95;;;27.80;99.90;;;;;;5015859;28;20485;-71
2022/12/23 11:57:37;;;;;;;37.13;18.75;;;27.70;99.90;;;;;;5051765;28;20033;-71
2022/12/23 12:00:06;;;;;;;37.97;20.75;;;27.60;99.90;;;;;;5053824;28;20456;-71
2022/12/23 12:02:44;;;;;;;46.50;23.00;;;27.70;99.90;;;;;;5051379;28;20033;-68
2022/12/23 12:05:46;;;;;;;43.55;21.92;;;27.60;99.90;;;;;;5050918;28;20080;-70
2022/12/23 12:08:16;;;;;;;42.88;21.77;;;27.80;99.90;;;;;;5054697;28;20053;-73
2022/12/23 12:10:42;;;;;;;42.15;22.00;;;27.50;99.90;;;;;;5054261;28;20017;-73
2022/12/23 12:13:39;;;;;;;43.72;23.05;;;27.80;99.90;;;;;;5054381;28;20381;-73
2022/12/23 12:16:20;;;;;;;48.55;24.20;;;27.70;99.90;;;;;;5040627;28;20037;-73
2022/12/23 12:18:49;;;;;;;36.15;21.20;;;27.50;99.90;;;;;;5053784;28;20021;-73
2022/12/23 12:21:27;;;;;;;39.20;21.90;;;27.70;99.90;;;;;;5053747;28;20052;-73
2022/12/23 12:23:59;;;;;;;44.25;23.92;;;27.70;99.90;;;;;;5053996;28;20035;-73
2022/12/23 12:26:28;;;;;;;44.25;23.42;;;27.60;99.90;;;;;;5054472;28;20036;-73
2022/12/23 12:29:20;;;;;;;41.03;22.38;;;27.40;99.90;;;;;;5054717;28;20107;-73
2022/12/23 12:31:49;;;;;;;;;;;27.50;99.90;;;;;;5055284;28;20029;-73
2022/12/23 12:34:37;;;;;;;37.83;22.00;;;27.50;99.90;;;;;;5055002;28;19963;-72
2022/12/23 12:37:26;;;;;;;39.00;22.02;;;27.40;99.90;;;;;;5054849;28;20537;-73
2022/12/23 12:40:11;;;;;;;42.67;21.25;;;27.60;99.90;;;;;;5054915;28;20017;-73
2022/12/23 12:42:53;;;;;;;46.70;19.52;;;27.60;99.90;;;;;;5054974;28;20049;-73
2022/12/23 12:45:24;;;;;;;34.33;18.02;;;27.50;99.90;;;;;;5054895;28;20025;-73
2022/12/23 12:48:26;;;;;;;33.75;18.00;;;27.40;99.90;;;;;;5054926;28;20025;-73
2022/12/23 12:51:20;;;;;;;25.73;15.77;;;27.40;99.90;;;;;;5020917;28;20516;-71
2022/12/23 12:53:59;;;;;;;30.02;15.40;;;27.40;99.90;;;;;;5054552;28;20496;-70
2022/12/23 12:56:56;;;;;;;31.52;17.30;;;27.40;99.90;;;;;;5054044;28;20021;-73
2022/12/23 12:59:31;;;;;;;28.80;18.20;;;27.50;99.90;;;;;;5042106;28;20096;-72
2022/12/23 13:02:31;;;;;;;29.58;17.27;;;27.30;99.90;;;;;;5053698;28;20215;-73
2022/12/23 13:05:37;;;;;;;30.08;17.20;;;27.50;99.90;;;;;;5052817;28;20017;-73
2022/12/23 13:08:25;;;;;;;35.83;18.20;;;27.30;99.90;;;;;;5050945;28;20021;-73
2022/12/23 13:10:58;;;;;;;28.70;15.20;;;27.30;99.90;;;;;;5052510;28;20029;-73
2022/12/23 13:13:49;;;;;;;31.90;16.05;;;27.30;99.90;;;;;;5042125;28;20042;-73
2022/12/23 13:16:50;;;;;;;36.83;17.73;;;27.40;99.90;;;;;;5054208;28;20032;-73
2022/12/23 13:19:50;;;;;;;37.72;17.75;;;27.40;99.90;;;;;;5021901;28;20036;-73
2022/12/23 13:22:23;;;;;;;34.40;17.25;;;27.30;99.90;;;;;;5001735;28;20048;-73
2022/12/23 13:25:14;;;;;;;40.63;17.38;;;27.40;99.90;;;;;;5053888;28;20048;-73